Time;durP1;ratioP1;P1;durP2;ratioP2;P2;SDS_P1;SDS_P2;PMS_P1;PMS_P2;Temp;Humidity;BMP_temperature;BMP_pressure;BME280_temperature;BME280_humidity;BME280_pressure;Samples;Min_cycle;Max_cycle;Signal;HPM_P1;HPM_P2
2023/10/28 00:01:11;;;;;;;9.60;7.10;;;;;;;8.77;100.00;97177.27;108068;1289;22400;-59
2023/10/28 00:03:36;;;;;;;9.80;7.60;;;;;;;8.77;100.00;97178.84;108028;1289;22205;-53
2023/10/28 00:06:02;;;;;;;11.50;8.10;;;;;;;8.76;100.00;97181.89;108051;1289;23376;-54
2023/10/28 00:08:28;;;;;;;12.70;7.70;;;;;;;8.74;100.00;97179.75;108044;1288;22224;-55
2023/10/28 00:10:53;;;;;;;11.70;8.20;;;;;;;8.70;100.00;97179.76;108041;1307;22212;-53
2023/10/28 00:13:18;;;;;;;11.30;8.60;;;;;;;8.62;100.00;97181.23;108091;1286;22308;-49
2023/10/28 00:15:44;;;;;;;12.10;8.30;;;;;;;8.58;100.00;97184.59;108042;1307;23011;-46
2023/10/28 00:18:09;;;;;;;12.60;9.00;;;;;;;8.55;100.00;97189.71;108058;1289;22459;-56
2023/10/28 00:20:35;;;;;;;9.90;8.00;;;;;;;8.56;100.00;97191.06;108043;1285;22292;-48
2023/10/28 00:23:03;;;;;;;10.20;8.80;;;;;;;8.52;100.00;97193.95;108049;1283;22302;-51
2023/10/28 00:25:31;;;;;;;10.30;8.20;;;;;;;8.51;100.00;97193.72;108044;1306;23258;-55
2023/10/28 00:27:57;;;;;;;10.90;8.40;;;;;;;8.50;100.00;97192.91;108032;1306;22290;-48
2023/10/28 00:30:23;;;;;;;9.80;7.90;;;;;;;8.48;100.00;97198.43;108042;1306;22316;-51
2023/10/28 00:32:53;;;;;;;10.40;8.90;;;;;;;8.46;100.00;97201.73;108052;1286;22628;-52
2023/10/28 00:35:19;;;;;;;14.50;9.80;;;;;;;8.42;100.00;97202.08;108047;1289;22250;-53
2023/10/28 00:37:44;;;;;;;12.90;9.60;;;;;;;8.36;100.00;97204.40;108051;1289;22236;-49
2023/10/28 00:40:10;;;;;;;16.30;11.00;;;;;;;8.34;100.00;97205.29;108056;1289;22476;-57
2023/10/28 00:42:36;;;;;;;18.30;11.50;;;;;;;8.25;100.00;97208.83;108051;1295;22475;-56
2023/10/28 00:45:03;;;;;;;16.80;12.20;;;;;;;8.26;100.00;97210.66;108056;1307;22248;-56
2023/10/28 00:47:29;;;;;;;21.60;11.20;;;;;;;8.26;100.00;97211.17;108062;1296;22452;-48
2023/10/28 00:49:54;;;;;;;17.40;11.70;;;;;;;8.27;100.00;97211.80;108069;1307;22230;-47
2023/10/28 00:52:21;;;;;;;16.80;12.00;;;;;;;8.29;100.00;97216.02;108083;1289;22444;-48
2023/10/28 00:54:48;;;;;;;17.30;11.50;;;;;;;8.33;100.00;97217.59;108039;1285;22351;-50
2023/10/28 00:57:17;;;;;;;15.80;11.60;;;;;;;8.33;100.00;97217.10;108076;1284;22219;-53
2023/10/28 00:59:42;;;;;;;14.80;10.90;;;;;;;8.34;100.00;97221.34;108059;1304;22337;-55
2023/10/28 01:02:09;;;;;;;19.90;12.60;;;;;;;8.33;100.00;97223.68;108019;1306;22239;-47
2023/10/28 01:04:34;;;;;;;14.90;11.00;;;;;;;8.35;100.00;97223.34;108052;1306;22209;-53
2023/10/28 01:07:00;;;;;;;19.20;10.80;;;;;;;8.38;100.00;97223.86;108044;1288;22189;-52
2023/10/28 01:09:26;;;;;;;10.30;7.80;;;;;;;8.31;100.00;97224.03;108046;1290;22969;-49
2023/10/28 01:11:54;;;;;;;11.60;7.90;;;;;;;8.18;100.00;97230.79;108062;1307;22405;-54
2023/10/28 01:14:20;;;;;;;11.80;8.00;;;;;;;8.17;100.00;97230.59;108076;1289;22385;-52
2023/10/28 01:16:45;;;;;;;10.80;7.60;;;;;;;8.20;100.00;97234.82;108046;1288;23554;-50
2023/10/28 01:19:11;;;;;;;13.50;7.80;;;;;;;8.19;100.00;97235.97;108045;1285;22258;-47
2023/10/28 01:21:36;;;;;;;12.10;7.60;;;;;;;8.18;100.00;97237.12;108066;1292;22277;-53
2023/10/28 01:24:03;;;;;;;10.50;7.60;;;;;;;8.13;100.00;97236.64;108052;1285;22414;-49
2023/10/28 01:26:28;;;;;;;11.60;7.70;;;;;;;8.11;100.00;97236.45;108048;1289;22619;-52
2023/10/28 01:28:54;;;;;;;11.90;8.10;;;;;;;8.12;100.00;97238.63;108056;1289;22373;-49
2023/10/28 01:31:21;;;;;;;12.50;8.80;;;;;;;8.10;100.00;97238.27;108062;1288;22255;-54
2023/10/28 01:33:46;;;;;;;11.90;9.00;;;;;;;8.07;100.00;97235.98;108049;1307;22216;-45
2023/10/28 01:36:12;;;;;;;15.00;9.80;;;;;;;8.04;100.00;97237.45;108065;1289;22357;-57
2023/10/28 01:38:37;;;;;;;14.30;8.80;;;;;;;8.05;100.00;97235.81;108038;1289;22217;-50
2023/10/28 01:41:02;;;;;;;11.60;8.50;;;;;;;8.04;100.00;97236.78;108055;1284;22414;-52
2023/10/28 01:43:29;;;;;;;11.60;8.70;;;;;;;8.04;100.00;97238.52;108067;1295;22500;-49
2023/10/28 01:45:54;;;;;;;12.10;8.80;;;;;;;8.07;100.00;97242.30;108037;1306;22220;-56
2023/10/28 01:48:20;;;;;;;11.60;8.90;;;;;;;8.08;100.00;97241.58;108035;1306;22364;-49
2023/10/28 01:50:45;;;;;;;12.60;8.80;;;;;;;7.97;100.00;97239.57;108047;1286;22271;-51
2023/10/28 01:53:10;;;;;;;14.90;9.00;;;;;;;7.89;100.00;97239.52;108043;1299;23472;-50
2023/10/28 01:55:35;;;;;;;11.90;8.70;;;;;;;7.90;100.00;97238.57;108071;1286;22228;-49
2023/10/28 01:58:01;;;;;;;12.10;8.70;;;;;;;7.90;100.00;97240.30;108035;1289;22987;-50
2023/10/28 02:00:30;;;;;;;11.00;8.90;;;;;;;7.92;100.00;97245.56;108044;1289;23014;-54
2023/10/28 02:02:56;;;;;;;11.10;8.50;;;;;;;7.95;100.00;97247.60;108062;1286;22235;-53
2023/10/28 02:05:21;;;;;;;10.30;7.60;;;;;;;7.93;100.00;97246.16;108037;1286;22451;-48
2023/10/28 02:07:46;;;;;;;10.70;7.50;;;;;;;7.89;100.00;97252.45;108039;1289;22373;-59
2023/10/28 02:10:11;;;;;;;12.20;7.00;;;;;;;7.87;100.00;97255.69;108055;1289;22306;-46
2023/10/28 02:12:37;;;;;;;7.70;6.70;;;;;;;7.89;100.00;97258.20;107533;1288;23164;-47
2023/10/28 02:15:04;;;;;;;7.60;6.30;;;;;;;7.90;100.00;97260.73;108060;1286;22408;-53
2023/10/28 02:17:29;;;;;;;11.20;7.30;;;;;;;7.91;100.00;97259.29;108051;1294;22286;-51
2023/10/28 02:19:56;;;;;;;13.20;7.10;;;;;;;7.82;100.00;97268.30;108043;1307;22382;-51
2023/10/28 02:22:22;;;;;;;10.50;6.50;;;;;;;7.83;100.00;97266.46;108054;1283;22225;-44
2023/10/28 02:24:47;;;;;;;9.00;6.80;;;;;;;7.84;100.00;97271.84;108042;1289;22289;-47
2023/10/28 02:27:12;;;;;;;9.90;7.70;;;;;;;7.85;100.00;97275.20;108045;1305;22222;-49
2023/10/28 02:29:37;;;;;;;8.10;6.90;;;;;;;7.88;100.00;97275.90;108049;1286;22407;-51
2023/10/28 02:32:05;;;;;;;8.00;6.10;;;;;;;7.85;100.00;97279.92;108046;1283;23173;-48
2023/10/28 02:34:30;;;;;;;;;;;;;;;7.80;100.00;97285.20;108071;1289;22418;-51
2023/10/28 02:36:55;;;;;;;5.80;4.60;;;;;;;7.76;100.00;97290.05;108025;1298;22873;-52
2023/10/28 02:39:20;;;;;;;6.80;5.00;;;;;;;7.76;100.00;97292.02;108036;1289;22240;-51
2023/10/28 02:43:39;;;;;;;5.50;4.80;;;;;;;7.76;100.00;97296.00;107803;1295;544804;-57
2023/10/28 02:46:05;;;;;;;6.70;5.50;;;;;;;7.75;100.00;97297.97;108157;1288;22422;-47
2023/10/28 02:48:31;;;;;;;5.70;4.80;;;;;;;7.75;100.00;97302.88;108070;1283;22426;-50
2023/10/28 02:51:03;;;;;;;6.30;5.20;;;;;;;7.77;100.00;97305.31;108034;1306;22244;-52
2023/10/28 02:53:28;;;;;;;6.60;4.80;;;;;;;7.78;100.00;97307.50;108042;1290;22472;-50
2023/10/28 02:55:53;;;;;;;5.70;4.90;;;;;;;7.79;100.00;97304.70;108054;1306;22394;-49
2023/10/28 02:58:19;;;;;;;10.00;5.70;;;;;;;7.71;100.00;97305.46;108170;1304;186376;-49
2023/10/28 03:00:44;;;;;;;6.50;5.90;;;;;;;7.67;100.00;97311.11;108295;1286;22975;-48
2023/10/28 03:03:09;;;;;;;6.40;5.30;;;;;;;7.67;100.00;97313.90;108311;1304;22316;-48
2023/10/28 03:05:35;;;;;;;7.00;5.20;;;;;;;7.72;100.00;97312.55;108322;1289;22188;-53
2023/10/28 03:08:00;;;;;;;8.00;5.50;;;;;;;7.74;100.00;97314.63;108325;1283;23206;-53
2023/10/28 03:10:26;;;;;;;6.30;5.20;;;;;;;7.75;100.00;97320.67;108312;1304;22224;-41
2023/10/28 03:12:51;;;;;;;6.00;5.30;;;;;;;7.73;100.00;97320.30;108321;1295;22249;-46
2023/10/28 03:15:16;;;;;;;7.90;6.10;;;;;;;7.74;100.00;97322.89;108315;1304;22236;-53
2023/10/28 03:17:41;;;;;;;7.20;6.10;;;;;;;7.76;100.00;97324.30;108308;1286;24372;-54
2023/10/28 03:20:11;;;;;;;8.40;5.90;;;;;;;7.76;100.00;97319.41;108331;1286;22525;-56
2023/10/28 03:22:37;;;;;;;11.50;5.90;;;;;;;7.66;100.00;97320.48;108327;1286;23258;-56
2023/10/28 03:25:03;;;;;;;8.30;6.50;;;;;;;7.57;100.00;97320.65;108342;1284;22251;-51
2023/10/28 03:27:29;;;;;;;9.60;5.80;;;;;;;7.58;100.00;97321.79;108323;1296;23075;-55
2023/10/28 03:29:56;;;;;;;8.70;6.00;;;;;;;7.58;100.00;97323.98;108315;1285;22235;-48
2023/10/28 03:32:21;;;;;;;6.50;5.50;;;;;;;7.59;100.00;97325.34;108314;1285;23085;-58
2023/10/28 03:34:47;;;;;;;6.00;5.00;;;;;;;7.57;100.00;97328.62;108329;1285;22250;-52
2023/10/28 03:37:13;;;;;;;7.20;4.70;;;;;;;7.47;100.00;97322.54;108322;1304;22286;-45
2023/10/28 03:39:38;;;;;;;5.80;4.80;;;;;;;7.42;100.00;97323.62;108348;1283;22385;-46
2023/10/28 03:42:04;;;;;;;5.50;4.40;;;;;;;7.38;100.00;97327.24;108317;1286;22430;-51
2023/10/28 03:44:30;;;;;;;4.80;3.90;;;;;;;7.34;100.00;97330.71;108337;1286;22242;-50
2023/10/28 03:46:56;;;;;;;4.70;3.80;;;;;;;7.30;100.00;97332.70;108335;1285;22432;-47
2023/10/28 03:49:21;;;;;;;4.50;3.60;;;;;;;7.30;100.00;97330.06;108343;1304;22333;-53
2023/10/28 03:51:46;;;;;;;3.40;3.10;;;;;;;7.29;100.00;97333.98;108343;1295;22248;-48
2023/10/28 03:54:13;;;;;;;7.00;3.60;;;;;;;7.30;100.00;97337.38;108310;1283;23225;-46
2023/10/28 03:56:38;;;;;;;4.10;3.40;;;;;;;7.32;100.00;97337.79;108311;1304;22424;-53
2023/10/28 03:59:04;;;;;;;6.10;4.00;;;;;;;7.33;100.00;97346.94;108300;1304;22288;-56
2023/10/28 04:01:29;;;;;;;4.40;3.80;;;;;;;7.34;100.00;97348.29;108285;1286;22185;-48
2023/10/28 04:03:56;;;;;;;5.10;4.10;;;;;;;7.34;100.00;97351.76;108298;1304;22976;-53
2023/10/28 04:06:21;;;;;;;5.70;4.30;;;;;;;7.35;100.00;97357.61;108295;1286;22282;-56
2023/10/28 04:08:46;;;;;;;6.30;3.80;;;;;;;7.38;100.00;97357.57;108299;1285;22243;-51
2023/10/28 04:11:12;;;;;;;4.90;4.30;;;;;;;7.40;100.00;97363.21;108298;1285;22249;-57
2023/10/28 04:13:38;;;;;;;4.80;4.30;;;;;;;7.39;100.00;97362.20;108305;1289;23535;-48
2023/10/28 04:16:04;;;;;;;5.20;4.60;;;;;;;7.38;100.00;97359.50;108304;1285;22420;-49
2023/10/28 04:18:29;;;;;;;5.70;4.90;;;;;;;7.31;100.00;97353.72;108297;1289;22306;-46
2023/10/28 04:20:55;;;;;;;5.80;4.50;;;;;;;7.30;100.00;97355.85;108305;1282;22939;-56
2023/10/28 04:23:21;;;;;;;5.10;4.50;;;;;;;7.30;100.00;97351.50;108022;1288;22431;-52
2023/10/28 04:25:46;;;;;;;8.20;5.50;;;;;;;7.33;100.00;97360.06;108285;1286;22220;-57
2023/10/28 04:28:12;;;;;;;5.70;5.00;;;;;;;7.35;100.00;97363.73;108285;1289;22334;-48
2023/10/28 04:30:37;;;;;;;6.70;5.10;;;;;;;7.38;100.00;97363.69;108315;1304;22324;-49
2023/10/28 04:33:04;;;;;;;7.90;5.60;;;;;;;7.39;100.00;97363.98;108318;1282;22269;-46
2023/10/28 04:35:29;;;;;;;8.10;5.80;;;;;;;7.37;100.00;97366.05;108296;1304;22323;-53
2023/10/28 04:37:55;;;;;;;8.60;5.80;;;;;;;7.35;100.00;97372.77;108314;1296;22467;-56
2023/10/28 04:40:20;;;;;;;8.20;6.30;;;;;;;7.40;100.00;97374.88;108315;1304;22550;-48
2023/10/28 04:42:47;;;;;;;6.70;6.00;;;;;;;7.44;100.00;97374.89;108289;1282;22272;-55
2023/10/28 04:45:12;;;;;;;7.70;5.50;;;;;;;7.49;100.00;97375.07;108305;1282;22558;-52
2023/10/28 04:47:38;;;;;;;8.10;5.70;;;;;;;7.49;100.00;97375.58;108313;1283;22275;-55
2023/10/28 04:50:06;;;;;;;7.70;6.00;;;;;;;7.49;100.00;97377.70;108320;1283;22907;-53
2023/10/28 04:52:31;;;;;;;7.30;5.80;;;;;;;7.50;100.00;97377.64;108280;1303;22519;-49
2023/10/28 04:54:58;;;;;;;10.00;6.20;;;;;;;7.52;100.00;97379.77;107545;1304;22583;-45
2023/10/28 04:57:24;;;;;;;7.50;5.70;;;;;;;7.51;100.00;97382.92;107246;1299;22620;-50
2023/10/28 04:59:52;;;;;;;7.40;5.80;;;;;;;7.49;100.00;97385.89;108310;1295;22432;-52
2023/10/28 05:02:17;;;;;;;7.60;6.20;;;;;;;7.47;100.00;97386.91;108303;1298;22292;-50
2023/10/28 05:04:42;;;;;;;7.70;5.90;;;;;;;7.46;100.00;97389.93;108360;1286;23022;-51
2023/10/28 05:07:08;;;;;;;8.60;6.20;;;;;;;7.48;100.00;97389.79;108365;1284;22304;-48
2023/10/28 05:09:36;;;;;;;8.90;5.90;;;;;;;7.49;100.00;97388.67;108284;1286;22248;-45
2023/10/28 05:12:01;;;;;;;9.00;6.20;;;;;;;7.50;100.00;97390.70;108312;1285;22963;-54
2023/10/28 05:14:27;;;;;;;9.00;5.80;;;;;;;7.52;100.00;97391.07;108298;1281;22236;-52
2023/10/28 05:16:52;;;;;;;7.30;6.20;;;;;;;7.54;100.00;97391.64;108306;1286;23107;-52
2023/10/28 05:19:21;;;;;;;9.90;6.80;;;;;;;7.56;100.00;97395.66;108290;1285;23176;-55
2023/10/28 05:21:46;;;;;;;8.80;7.30;;;;;;;7.57;100.00;97398.02;108294;1284;22223;-45
2023/10/28 05:24:12;;;;;;;10.20;7.60;;;;;;;7.57;100.00;97402.27;108299;1285;22203;-48
2023/10/28 05:26:37;;;;;;;12.00;8.50;;;;;;;7.56;100.00;97403.54;107652;1282;25290;-52
2023/10/28 05:29:03;;;;;;;12.90;9.00;;;;;;;7.56;100.00;97406.46;107875;1285;22343;-46
2023/10/28 05:31:29;;;;;;;12.50;8.20;;;;;;;7.55;100.00;97407.58;108297;1304;22129;-51
2023/10/28 05:33:55;;;;;;;11.20;7.80;;;;;;;7.52;100.00;97411.63;108286;1282;22331;-51
2023/10/28 05:36:20;;;;;;;11.80;7.80;;;;;;;7.53;100.00;97410.89;108317;1285;22272;-54
2023/10/28 05:38:45;;;;;;;11.80;8.80;;;;;;;7.56;100.00;97411.70;108303;1282;22238;-46
2023/10/28 05:41:11;;;;;;;15.70;10.50;;;;;;;7.58;100.00;97416.23;108178;1283;23127;-51
2023/10/28 05:43:37;;;;;;;16.10;10.80;;;;;;;7.63;100.00;97417.66;108297;1286;22562;-50
2023/10/28 05:46:02;;;;;;;23.90;12.40;;;;;;;7.68;100.00;97420.06;108312;1304;22936;-50
2023/10/28 05:48:28;;;;;;;22.10;11.00;;;;;;;7.73;100.00;97424.42;108307;1301;22271;-54
2023/10/28 05:50:55;;;;;;;17.00;10.50;;;;;;;7.76;100.00;97426.14;108296;1304;23035;-51
2023/10/28 05:53:21;;;;;;;21.00;11.30;;;;;;;7.77;100.00;97429.90;108320;1304;22975;-48
2023/10/28 05:55:46;;;;;;;30.10;13.70;;;;;;;7.77;100.00;97431.86;108323;1285;22505;-47
2023/10/28 05:58:11;;;;;;;26.20;12.90;;;;;;;7.77;100.00;97430.59;108303;1296;22400;-55
2023/10/28 06:00:38;;;;;;;23.70;11.60;;;;;;;7.78;100.00;97433.13;108308;1282;22365;-52
2023/10/28 06:03:03;;;;;;;22.90;11.60;;;;;;;7.82;100.00;97435.48;108307;1286;22879;-49
2023/10/28 06:05:29;;;;;;;24.30;12.10;;;;;;;7.84;100.00;97437.42;108302;1285;22363;-48
2023/10/28 06:07:54;;;;;;;20.50;11.10;;;;;;;7.86;100.00;97439.84;108313;1282;22305;-53
2023/10/28 06:10:24;;;;;;;21.60;11.40;;;;;;;7.90;100.00;97438.05;108298;1285;24675;-51
2023/10/28 06:12:49;;;;;;;22.30;11.10;;;;;;;7.90;100.00;97443.77;108302;1285;22340;-44
2023/10/28 06:15:15;;;;;;;20.80;10.70;;;;;;;7.91;100.00;97449.12;108304;1282;23184;-50
2023/10/28 06:17:40;;;;;;;26.30;10.50;;;;;;;7.94;100.00;97455.99;108294;1282;22283;-51
2023/10/28 06:20:07;;;;;;;21.40;10.30;;;;;;;7.95;100.00;97456.98;108314;1282;22281;-52
2023/10/28 06:22:34;;;;;;;19.20;10.30;;;;;;;7.96;100.00;97461.12;108300;1288;22298;-52
2023/10/28 06:24:59;;;;;;;17.50;10.10;;;;;;;7.97;100.00;97463.13;108342;1285;22255;-55
2023/10/28 06:27:24;;;;;;;19.60;9.40;;;;;;;8.00;100.00;97456.30;108298;1304;23043;-56
2023/10/28 06:29:50;;;;;;;17.50;8.80;;;;;;;8.01;100.00;97464.20;108307;1283;22966;-53
2023/10/28 06:32:15;;;;;;;20.00;9.90;;;;;;;8.03;100.00;97467.36;108299;1285;22234;-53
2023/10/28 06:34:40;;;;;;;24.40;11.50;;;;;;;8.06;100.00;97471.20;108308;1304;22970;-51
2023/10/28 06:37:06;;;;;;;25.10;12.00;;;;;;;8.08;100.00;97467.88;108314;1286;22219;-48
2023/10/28 06:39:34;;;;;;;27.70;11.40;;;;;;;8.11;100.00;97469.61;108321;1304;23145;-49
2023/10/28 06:42:01;;;;;;;30.00;12.20;;;;;;;8.15;100.00;97471.59;108318;1304;22228;-51
2023/10/28 06:44:27;;;;;;;26.30;10.80;;;;;;;8.17;100.00;97473.73;108306;1285;22300;-55
2023/10/28 06:46:52;;;;;;;25.30;10.20;;;;;;;8.15;100.00;97474.55;108320;1282;22337;-51
2023/10/28 06:49:17;;;;;;;20.10;10.60;;;;;;;8.16;100.00;97475.16;108313;1285;22547;-52
2023/10/28 06:51:43;;;;;;;22.00;11.40;;;;;;;8.20;100.00;97482.22;108303;1285;23128;-47
2023/10/28 06:54:09;;;;;;;22.60;10.60;;;;;;;8.24;100.00;97484.17;108317;1304;22309;-49
2023/10/28 06:56:34;;;;;;;22.60;10.80;;;;;;;8.28;100.00;97486.87;108016;1304;23000;-51
2023/10/28 06:59:01;;;;;;;42.50;20.70;;;;;;;8.30;100.00;97489.48;108298;1282;22303;-53
2023/10/28 07:01:26;;;;;;;30.90;13.20;;;;;;;8.32;100.00;97494.56;108326;1286;22289;-57
2023/10/28 07:03:52;;;;;;;27.20;12.80;;;;;;;8.35;100.00;97491.36;108335;1282;22382;-52
2023/10/28 07:06:17;;;;;;;24.30;11.90;;;;;;;8.37;100.00;97494.16;108298;1304;22355;-43
2023/10/28 07:08:43;;;;;;;27.90;13.70;;;;;;;8.41;100.00;97491.98;108321;1284;22318;-49
2023/10/28 07:11:11;;;;;;;23.10;13.20;;;;;;;8.46;100.00;97493.89;108271;1304;23195;-54
2023/10/28 07:13:36;;;;;;;24.90;12.00;;;;;;;8.54;100.00;97495.62;108295;1295;23095;-51
2023/10/28 07:16:03;;;;;;;30.50;12.10;;;;;;;8.59;100.00;97499.58;108289;1292;22949;-48
2023/10/28 07:18:32;;;;;;;21.60;11.80;;;;;;;8.62;100.00;97502.31;108300;1296;22299;-52
2023/10/28 07:20:58;;;;;;;21.50;12.00;;;;;;;8.63;100.00;97500.80;108322;1285;22238;-51
2023/10/28 07:23:28;;;;;;;23.10;11.50;;;;;;;8.68;100.00;97501.71;108301;1282;22382;-45
2023/10/28 07:25:54;;;;;;;21.70;11.30;;;;;;;8.72;100.00;97504.03;108305;1304;22294;-46
2023/10/28 07:28:20;;;;;;;27.90;12.40;;;;;;;8.74;100.00;97503.35;108171;1299;22222;-54
2023/10/28 07:30:48;;;;;;;35.30;13.90;;;;;;;8.76;100.00;97503.14;108298;1304;22378;-55
2023/10/28 07:33:13;;;;;;;37.00;15.00;;;;;;;8.79;100.00;97505.86;108303;1285;22279;-52
2023/10/28 07:35:43;;;;;;;32.50;16.50;;;;;;;8.83;100.00;97509.79;108303;1304;22286;-45
2023/10/28 07:38:08;;;;;;;30.10;14.10;;;;;;;8.85;100.00;97510.31;108335;1285;22250;-51
2023/10/28 07:40:34;;;;;;;25.30;13.70;;;;;;;8.88;100.00;97507.15;108356;1303;22481;-48
2023/10/28 07:42:59;;;;;;;26.80;14.00;;;;;;;8.90;100.00;97508.61;108343;1280;22423;-53
2023/10/28 07:45:24;;;;;;;37.80;21.60;;;;;;;8.92;100.00;97508.06;108306;1282;22360;-48
2023/10/28 07:47:51;;;;;;;34.50;19.30;;;;;;;8.96;100.00;97517.89;108311;1303;22953;-44
2023/10/28 07:50:17;;;;;;;32.50;19.20;;;;;;;8.98;100.00;97521.02;108248;1285;23287;-55
2023/10/28 07:52:42;;;;;;;25.10;14.80;;;;;;;8.99;100.00;97525.73;108308;1288;22253;-56
2023/10/28 07:55:08;;;;;;;26.00;14.30;;;;;;;8.99;100.00;97526.09;108276;1300;22829;-48
2023/10/28 07:57:33;;;;;;;28.10;14.80;;;;;;;9.01;100.00;97529.20;108287;1289;22391;-51
2023/10/28 07:59:59;;;;;;;26.50;14.80;;;;;;;9.07;100.00;97530.20;108304;1298;22898;-46
2023/10/28 08:02:24;;;;;;;27.40;14.10;;;;;;;9.10;100.00;97539.75;108324;1282;22473;-42
2023/10/28 08:04:53;;;;;;;31.20;16.80;;;;;;;9.11;100.00;97541.25;108345;1282;22173;-55
2023/10/28 08:07:18;;;;;;;31.30;16.00;;;;;;;9.10;100.00;97543.58;108318;1303;22225;-52
2023/10/28 08:09:45;;;;;;;47.50;23.00;;;;;;;9.09;100.00;97548.52;108315;1304;22277;-57
2023/10/28 08:12:11;;;;;;;49.60;25.60;;;;;;;9.09;100.00;97548.00;108331;1283;22328;-50
2023/10/28 08:14:36;;;;;;;43.00;23.70;;;;;;;9.10;100.00;97552.48;108331;1283;22253;-51
2023/10/28 08:17:01;;;;;;;36.60;17.20;;;;;;;9.10;100.00;97556.71;108346;1286;22408;-54
2023/10/28 08:19:29;;;;;;;32.20;17.10;;;;;;;9.09;100.00;97557.43;108332;1304;22967;-50
2023/10/28 08:21:54;;;;;;;;;;;;;;;9.11;100.00;97556.81;108340;1282;22395;-55
2023/10/28 08:24:22;;;;;;;32.20;16.40;;;;;;;9.11;100.00;97560.60;108324;1282;22264;-45
2023/10/28 08:26:47;;;;;;;36.50;17.10;;;;;;;9.13;100.00;97562.42;108356;1285;22227;-52
2023/10/28 08:29:14;;;;;;;29.00;15.90;;;;;;;9.15;100.00;97563.75;108349;1285;22228;-52
2023/10/28 08:31:40;;;;;;;30.80;16.30;;;;;;;9.22;100.00;97565.33;108400;1285;22398;-55
2023/10/28 08:34:06;;;;;;;31.40;16.10;;;;;;;9.26;100.00;97567.70;108454;1302;22884;-47
2023/10/28 08:36:34;;;;;;;27.70;14.90;;;;;;;9.27;100.00;97568.31;108327;1304;22400;-47
2023/10/28 08:38:59;;;;;;;28.10;16.20;;;;;;;9.29;100.00;97574.67;108313;1304;22209;-46
2023/10/28 08:41:25;;;;;;;30.60;14.90;;;;;;;9.31;100.00;97575.18;108350;1282;23269;-56
2023/10/28 08:43:53;;;;;;;26.10;16.70;;;;;;;9.32;100.00;97575.27;108331;1298;22241;-49
2023/10/28 08:46:18;;;;;;;28.40;16.10;;;;;;;9.32;100.00;97576.83;108257;1285;22873;-51
2023/10/28 08:48:44;;;;;;;23.90;15.10;;;;;;;9.34;100.00;97577.77;108328;1304;22234;-52
2023/10/28 08:51:12;;;;;;;25.40;15.20;;;;;;;9.34;100.00;97580.36;108335;1304;22505;-52
2023/10/28 08:53:38;;;;;;;26.30;15.10;;;;;;;9.37;100.00;97581.31;108330;1304;22344;-48
2023/10/28 08:56:04;;;;;;;32.60;19.30;;;;;;;9.38;100.00;97582.34;108345;1286;22442;-54
2023/10/28 08:58:29;;;;;;;30.30;18.00;;;;;;;9.40;100.00;97587.21;108329;1304;22216;-46
2023/10/28 09:00:59;;;;;;;31.50;18.50;;;;;;;9.44;100.00;97589.23;108342;1298;22402;-52
2023/10/28 09:03:25;;;;;;;30.00;17.30;;;;;;;9.45;100.00;97593.00;108338;1281;22227;-48
2023/10/28 09:05:52;;;;;;;26.30;16.50;;;;;;;9.47;100.00;97595.60;108352;1281;22292;-56
2023/10/28 09:08:19;;;;;;;26.10;16.00;;;;;;;9.51;100.00;97595.83;108350;1282;23509;-53
2023/10/28 09:10:47;;;;;;;24.40;15.80;;;;;;;9.56;100.00;97596.77;108342;1285;22941;-50
2023/10/28 09:13:13;;;;;;;27.80;16.00;;;;;;;9.64;100.00;97599.77;108357;1284;22304;-54
2023/10/28 09:15:39;;;;;;;31.30;17.10;;;;;;;9.69;100.00;97604.39;108327;1301;22320;-52
2023/10/28 09:18:04;;;;;;;32.20;18.50;;;;;;;9.69;100.00;97602.27;108324;1304;22400;-45
2023/10/28 09:20:30;;;;;;;30.20;15.70;;;;;;;9.68;100.00;97603.92;108331;1286;22237;-52
2023/10/28 09:22:56;;;;;;;22.60;13.90;;;;;;;9.69;100.00;97606.30;108339;1304;22879;-52
2023/10/28 09:25:21;;;;;;;26.30;15.40;;;;;;;9.69;100.00;97608.11;108359;1285;22161;-49
2023/10/28 09:27:47;;;;;;;31.50;16.90;;;;;;;9.69;100.00;97614.02;108341;1304;22225;-44
2023/10/28 09:30:13;;;;;;;25.00;14.40;;;;;;;9.71;100.00;97617.02;108338;1304;22296;-56
2023/10/28 09:32:39;;;;;;;20.60;13.40;;;;;;;9.71;100.00;97618.97;108358;1304;22433;-49
2023/10/28 09:35:06;;;;;;;19.80;12.50;;;;;;;9.70;100.00;97613.59;108328;1304;23145;-51
2023/10/28 09:37:36;;;;;;;25.70;16.00;;;;;;;9.71;100.00;97611.24;108336;1304;22375;-49
2023/10/28 09:40:04;;;;;;;21.60;13.20;;;;;;;9.74;100.00;97611.85;108344;1303;22229;-53
2023/10/28 09:42:35;;;;;;;21.10;13.20;;;;;;;9.79;100.00;97616.89;108340;1282;22535;-51
2023/10/28 09:45:05;;;;;;;21.00;12.00;;;;;;;9.82;100.00;97620.15;108369;1296;22982;-51
2023/10/28 09:47:57;;;;;;;17.40;10.80;;;;;;;9.85;100.00;97618.94;108362;1282;22256;-45
2023/10/28 09:50:25;;;;;;;17.00;10.20;;;;;;;9.86;100.00;97617.02;108360;1284;22223;-46
2023/10/28 09:52:53;;;;;;;21.80;11.00;;;;;;;9.87;100.00;97617.33;108343;1286;22928;-45
2023/10/28 09:55:24;;;;;;;16.50;10.90;;;;;;;9.91;100.00;97618.79;108341;1286;22399;-46
2023/10/28 09:57:53;;;;;;;19.50;13.00;;;;;;;9.95;100.00;97618.27;108335;1286;22316;-57
2023/10/28 10:00:23;;;;;;;19.00;11.80;;;;;;;10.01;100.00;97620.41;108348;1285;23029;-52
2023/10/28 10:02:58;;;;;;;21.40;13.20;;;;;;;10.06;100.00;97621.84;108354;1285;22308;-46
2023/10/28 10:05:30;;;;;;;18.30;12.30;;;;;;;10.08;100.00;97618.50;108349;1284;22233;-52
2023/10/28 10:07:55;;;;;;;19.20;12.70;;;;;;;10.11;100.00;97625.27;108348;1304;22396;-45
2023/10/28 10:10:21;;;;;;;18.70;12.80;;;;;;;10.12;100.00;97625.36;108329;1295;23026;-49
2023/10/28 10:12:50;;;;;;;22.20;12.50;;;;;;;10.07;100.00;97627.14;108341;1304;23183;-53
2023/10/28 10:15:19;;;;;;;21.00;12.00;;;;;;;10.07;100.00;97629.12;108148;1287;22199;-50
2023/10/28 10:18:04;;;;;;;20.40;12.80;;;;;;;10.07;100.00;97624.84;108389;1303;22257;-54
2023/10/28 10:20:33;;;;;;;19.40;12.60;;;;;;;10.09;100.00;97629.98;108346;1303;22266;-50
2023/10/28 10:23:02;;;;;;;18.00;12.70;;;;;;;10.11;100.00;97629.41;108369;1285;22693;-45
2023/10/28 10:25:39;;;;;;;20.80;12.60;;;;;;;10.17;100.00;97628.64;108333;1282;23086;-51
2023/10/28 10:28:15;;;;;;;17.70;12.90;;;;;;;10.22;100.00;97631.73;108323;1304;22043;-45
2023/10/28 10:30:42;;;;;;;21.30;13.10;;;;;;;10.27;100.00;97630.43;108345;1284;22415;-53
2023/10/28 10:33:08;;;;;;;19.00;12.30;;;;;;;10.30;100.00;97630.73;108334;1282;22372;-45
2023/10/28 10:35:34;;;;;;;19.90;13.10;;;;;;;10.33;100.00;97632.06;108336;1300;22423;-52
2023/10/28 10:38:04;;;;;;;19.80;12.90;;;;;;;10.37;100.00;97637.15;108329;1304;22386;-52
2023/10/28 10:40:41;;;;;;;20.30;12.90;;;;;;;10.38;100.00;97638.34;108364;1281;22947;-49
2023/10/28 10:43:09;;;;;;;19.20;12.90;;;;;;;10.42;100.00;97638.06;108359;1304;22390;-49
2023/10/28 10:45:38;;;;;;;19.10;11.50;;;;;;;10.46;100.00;97636.49;108357;1300;22330;-44
2023/10/28 10:48:07;;;;;;;15.30;10.20;;;;;;;10.49;100.00;97635.91;108358;1285;22432;-48
2023/10/28 10:50:34;;;;;;;14.10;10.10;;;;;;;10.55;100.00;97636.63;108355;1292;22212;-50
2023/10/28 10:53:03;;;;;;;13.40;8.60;;;;;;;10.62;100.00;97636.98;108364;1304;22220;-45
2023/10/28 10:55:29;;;;;;;15.10;8.40;;;;;;;10.65;100.00;97639.52;108356;1285;22264;-53
2023/10/28 10:57:54;;;;;;;13.00;8.30;;;;;;;10.69;100.00;97639.82;108347;1304;22444;-52
2023/10/28 11:00:20;;;;;;;11.60;7.20;;;;;;;10.73;100.00;97641.77;108356;1285;22273;-46
2023/10/28 11:02:47;;;;;;;9.20;6.40;;;;;;;10.77;100.00;97640.96;108360;1292;22197;-55
2023/10/28 11:05:13;;;;;;;12.90;6.30;;;;;;;10.77;100.00;97638.48;108370;1282;22381;-54
2023/10/28 11:07:38;;;;;;;9.90;6.20;;;;;;;10.81;100.00;97637.00;108343;1282;22349;-48
2023/10/28 11:10:04;;;;;;;12.30;6.20;;;;;;;10.85;100.00;97643.27;108347;1286;22251;-51
2023/10/28 11:12:30;;;;;;;7.70;5.50;;;;;;;10.87;100.00;97646.11;108351;1286;23077;-56